Time;durP1;ratioP1;P1;durP2;ratioP2;P2;SDS_P1;SDS_P2;PMS_P1;PMS_P2;Temp;Humidity;BMP_temperature;BMP_pressure;BME280_temperature;BME280_humidity;BME280_pressure;Samples;Min_cycle;Max_cycle;Signal;HPM_P1;HPM_P2
2022/11/21 00:01:20;;;;;;;8.52;2.55;;;;;;;;;;5066328;28;20561;-63
2022/11/21 00:03:46;;;;;;;8.05;2.63;;;;;;;;;;5066641;28;20139;-63
2022/11/21 00:06:11;;;;;;;12.18;3.00;;;;;;;;;;5066555;28;20557;-63
2022/11/21 00:08:36;;;;;;;7.55;2.42;;;;;;;;;;5064230;28;20610;-62
2022/11/21 00:11:02;;;;;;;13.68;3.08;;;;;;;;;;5046809;28;20876;-63
2022/11/21 00:13:27;;;;;;;10.80;2.70;;;;;;;;;;5046146;28;20086;-63
2022/11/21 00:15:52;;;;;;;9.35;2.63;;;;;;;;;;5046023;28;20033;-63
2022/11/21 00:18:18;;;;;;;10.35;3.10;;;;;;;;;;5042794;28;20029;-62
2022/11/21 00:20:43;;;;;;;9.10;2.92;;;;;;;;;;5035865;28;20027;-62
2022/11/21 00:23:09;;;;;;;10.65;2.10;;;;;;;;;;5044840;28;20037;-63
2022/11/21 00:25:35;;;;;;;10.60;2.88;;;;;;;;;;5046149;28;20044;-63
2022/11/21 00:28:01;;;;;;;11.88;3.05;;;;;;;;;;5045642;28;20128;-63
2022/11/21 00:30:27;;;;;;;8.98;2.35;;;;;;;;;;5028145;28;20112;-63
2022/11/21 00:32:52;;;;;;;9.43;2.67;;;;;;;;;;5045743;28;20115;-62
2022/11/21 00:35:17;;;;;;;13.27;3.08;;;;;;;;;;5042631;28;20099;-63
2022/11/21 00:37:43;;;;;;;6.93;2.58;;;;;;;;;;5042093;28;20448;-62
2022/11/21 00:40:09;;;;;;;5.43;2.42;;;;;;;;;;5045149;28;20060;-63
2022/11/21 00:42:35;;;;;;;10.15;3.10;;;;;;;;;;5046327;28;20025;-63
2022/11/21 00:45:00;;;;;;;10.32;3.15;;;;;;;;;;5030784;28;20033;-63
2022/11/21 00:47:25;;;;;;;8.55;2.95;;;;;;;;;;5036321;28;20025;-63
2022/11/21 00:49:51;;;;;;;15.20;2.65;;;;;;;;;;5045499;28;20037;-63
2022/11/21 00:52:17;;;;;;;9.30;2.33;;;;;;;;;;5045956;28;20142;-63
2022/11/21 00:54:42;;;;;;;4.93;2.25;;;;;;;;;;5045730;28;20517;-63
2022/11/21 00:57:07;;;;;;;7.63;3.40;;;;;;;;;;5045853;28;20021;-63
2022/11/21 00:59:33;;;;;;;11.25;2.60;;;;;;;;;;5045699;28;20086;-63
2022/11/21 01:01:58;;;;;;;10.13;2.38;;;;;;;;;;5045904;28;20180;-63
2022/11/21 01:04:23;;;;;;;6.72;3.20;;;;;;;;;;5045951;28;20036;-63
2022/11/21 01:06:49;;;;;;;4.85;2.45;;;;;;;;;;5052223;28;20032;-61
2022/11/21 01:09:14;;;;;;;10.90;2.60;;;;;;;;;;5065775;28;20036;-63
2022/11/21 01:11:39;;;;;;;5.88;2.20;;;;;;;;;;5047900;28;20115;-63
2022/11/21 01:14:05;;;;;;;6.65;2.60;;;;;;;;;;5056114;28;20055;-62
2022/11/21 01:16:31;;;;;;;6.63;2.63;;;;;;;;;;5025243;28;20488;-63
2022/11/21 01:18:57;;;;;;;6.28;2.22;;;;;;;;;;5025246;28;20037;-63
2022/11/21 01:21:28;;;;;;;7.25;2.20;;;;;;;;;;5028578;28;20044;-63
2022/11/21 01:23:54;;;;;;;8.07;3.13;;;;;;;;;;5040587;28;20018;-63
2022/11/21 01:26:24;;;;;;;8.45;2.97;;;;;;;;;;5046765;28;20462;-63
2022/11/21 01:28:50;;;;;;;11.18;2.35;;;;;;;;;;5049309;28;20029;-62
2022/11/21 01:31:27;;;;;;;5.95;2.75;;;;;;;;;;5049755;28;20043;-63
2022/11/21 01:33:53;;;;;;;6.60;2.35;;;;;;;;;;5049158;28;20033;-63
2022/11/21 01:36:22;;;;;;;6.15;2.03;;;;;;;;;;5049304;28;20029;-62
2022/11/21 01:38:52;;;;;;;5.90;2.20;;;;;;;;;;5049595;28;20017;-62
2022/11/21 01:41:27;;;;;;;6.53;2.20;;;;;;;;;;5047536;28;20037;-62
2022/11/21 01:43:53;;;;;;;7.13;2.10;;;;;;;;;;5031045;28;20035;-63
2022/11/21 01:46:20;;;;;;;7.40;1.85;;;;;;;;;;5049073;28;20048;-63
2022/11/21 01:49:03;;;;;;;6.97;2.00;;;;;;;;;;5048916;28;20036;-63
2022/11/21 01:51:35;;;;;;;9.10;2.33;;;;;;;;;;5048916;28;20049;-62
2022/11/21 01:54:12;;;;;;;4.30;2.08;;;;;;;;;;5049539;28;20052;-62
2022/11/21 01:56:48;;;;;;;5.95;1.67;;;;;;;;;;5048964;28;20029;-63
2022/11/21 01:59:20;;;;;;;5.25;2.47;;;;;;;;;;5049499;28;20037;-63
2022/11/21 02:01:50;;;;;;;5.88;1.60;;;;;;;;;;5048750;28;20036;-63
2022/11/21 02:04:15;;;;;;;5.13;2.00;;;;;;;;;;5048469;28;20033;-63
2022/11/21 02:06:41;;;;;;;4.05;2.03;;;;;;;;;;5048783;28;20086;-63
2022/11/21 02:09:07;;;;;;;3.50;1.60;;;;;;;;;;5048883;28;20024;-63
2022/11/21 02:11:39;;;;;;;3.03;1.48;;;;;;;;;;5049187;28;20420;-63
2022/11/21 02:14:05;;;;;;;4.07;1.40;;;;;;;;;;5048420;28;20163;-63
2022/11/21 02:16:32;;;;;;;2.00;1.20;;;;;;;;;;5046355;28;20037;-63
2022/11/21 02:18:57;;;;;;;5.18;1.65;;;;;;;;;;5048124;28;20120;-63
2022/11/21 02:21:47;;;;;;;4.82;1.60;;;;;;;;;;5048661;28;20111;-63
2022/11/21 02:24:24;;;;;;;7.00;2.40;;;;;;;;;;5047515;28;20044;-63
2022/11/21 02:26:49;;;;;;;4.30;1.15;;;;;;;;;;5049275;28;20056;-63
2022/11/21 02:29:15;;;;;;;2.67;1.58;;;;;;;;;;5049846;28;20060;-63
2022/11/21 02:31:40;;;;;;;6.57;1.75;;;;;;;;;;5043710;28;20044;-63
2022/11/21 02:34:05;;;;;;;4.53;1.73;;;;;;;;;;5048153;28;20125;-63
2022/11/21 02:36:40;;;;;;;6.78;1.50;;;;;;;;;;5049981;28;20543;-63
2022/11/21 02:39:16;;;;;;;5.63;1.70;;;;;;;;;;5029755;28;20025;-62
2022/11/21 02:41:53;;;;;;;9.93;2.35;;;;;;;;;;5048984;28;20064;-63
2022/11/21 02:44:23;;;;;;;5.65;1.48;;;;;;;;;;5048783;28;20090;-63
2022/11/21 02:46:51;;;;;;;3.58;1.25;;;;;;;;;;5053204;28;20089;-63
2022/11/21 02:49:23;;;;;;;3.92;1.40;;;;;;;;;;5056457;28;20033;-62
2022/11/21 02:51:48;;;;;;;2.38;1.17;;;;;;;;;;5047226;28;20466;-63
2022/11/21 02:54:13;;;;;;;7.32;1.77;;;;;;;;;;5047904;28;20037;-63
2022/11/21 02:56:39;;;;;;;4.22;1.50;;;;;;;;;;5045717;28;20102;-63
2022/11/21 02:59:04;;;;;;;4.78;1.67;;;;;;;;;;5048410;28;20041;-63
2022/11/21 03:01:29;;;;;;;4.53;1.40;;;;;;;;;;5047346;28;20025;-63
2022/11/21 03:03:55;;;;;;;4.07;1.20;;;;;;;;;;5047558;28;20029;-63
2022/11/21 03:06:20;;;;;;;3.60;1.48;;;;;;;;;;5048023;28;20029;-63
2022/11/21 03:08:45;;;;;;;5.55;1.33;;;;;;;;;;5048110;28;20667;-63
2022/11/21 03:11:11;;;;;;;4.00;1.38;;;;;;;;;;5045439;28;20029;-62
2022/11/21 03:13:36;;;;;;;4.28;1.17;;;;;;;;;;5044569;28;20025;-63
2022/11/21 03:16:01;;;;;;;2.25;1.20;;;;;;;;;;5047687;28;20033;-63
2022/11/21 03:18:26;;;;;;;2.20;1.33;;;;;;;;;;5047479;28;20124;-62
2022/11/21 03:20:52;;;;;;;4.75;1.50;;;;;;;;;;5043118;28;20013;-62
2022/11/21 03:23:17;;;;;;;1.77;0.90;;;;;;;;;;5019902;28;20500;-62
2022/11/21 03:25:42;;;;;;;7.07;1.48;;;;;;;;;;5026896;28;20046;-63
2022/11/21 03:28:08;;;;;;;3.83;1.15;;;;;;;;;;5027557;28;20041;-62
2022/11/21 03:30:33;;;;;;;1.48;0.98;;;;;;;;;;5027262;28;20033;-63
2022/11/21 03:32:58;;;;;;;6.03;1.20;;;;;;;;;;5031053;28;20010;-62
2022/11/21 03:35:24;;;;;;;3.67;1.55;;;;;;;;;;5047696;28;20028;-63
2022/11/21 03:37:49;;;;;;;1.38;0.93;;;;;;;;;;5046924;28;20029;-63
2022/11/21 03:40:15;;;;;;;1.23;1.00;;;;;;;;;;5047434;28;20571;-62
2022/11/21 03:42:40;;;;;;;2.83;0.88;;;;;;;;;;5039929;28;20029;-62
2022/11/21 03:45:06;;;;;;;3.88;1.25;;;;;;;;;;5043186;28;20024;-62
2022/11/21 03:47:32;;;;;;;3.55;1.67;;;;;;;;;;5047701;28;20070;-62
2022/11/21 03:49:57;;;;;;;5.70;2.00;;;;;;;;;;5048032;28;20116;-63
2022/11/21 03:52:22;;;;;;;2.78;1.65;;;;;;;;;;5045333;28;20510;-62
2022/11/21 03:54:48;;;;;;;7.82;1.83;;;;;;;;;;5047308;28;20086;-63
2022/11/21 03:57:13;;;;;;;6.72;1.75;;;;;;;;;;5047277;28;20516;-63
2022/11/21 03:59:38;;;;;;;2.60;1.20;;;;;;;;;;5043796;28;20051;-63
2022/11/21 04:02:04;;;;;;;3.30;1.33;;;;;;;;;;5047052;28;20037;-63
2022/11/21 04:04:29;;;;;;;4.50;1.50;;;;;;;;;;5046612;28;20120;-63
2022/11/21 04:06:54;;;;;;;3.63;1.40;;;;;;;;;;5046745;28;20056;-63
2022/11/21 04:09:20;;;;;;;2.88;1.42;;;;;;;;;;5046672;28;20116;-63
2022/11/21 04:11:45;;;;;;;5.68;1.50;;;;;;;;;;5046819;28;20043;-63
2022/11/21 04:14:10;;;;;;;5.03;1.88;;;;;;;;;;5046591;28;20060;-63
2022/11/21 04:16:35;;;;;;;5.32;1.17;;;;;;;;;;5043592;28;20037;-62
2022/11/21 04:19:01;;;;;;;4.95;1.30;;;;;;;;;;5038923;28;20057;-63
2022/11/21 04:21:27;;;;;;;3.85;1.33;;;;;;;;;;5041358;28;20035;-62
2022/11/21 04:23:52;;;;;;;2.33;1.13;;;;;;;;;;5045722;28;20025;-62
2022/11/21 04:26:17;;;;;;;5.15;1.25;;;;;;;;;;5047151;28;20024;-62
2022/11/21 04:28:43;;;;;;;5.15;1.42;;;;;;;;;;5043443;28;20521;-63
2022/11/21 04:31:08;;;;;;;3.72;1.60;;;;;;;;;;5044617;28;20124;-62
2022/11/21 04:33:34;;;;;;;5.30;1.48;;;;;;;;;;5057802;28;20037;-62
2022/11/21 04:36:00;;;;;;;8.13;1.40;;;;;;;;;;5046331;28;20111;-62
2022/11/21 04:38:25;;;;;;;6.82;1.20;;;;;;;;;;5046565;28;20079;-63
2022/11/21 04:40:50;;;;;;;5.10;1.50;;;;;;;;;;5046250;28;20033;-63
2022/11/21 04:43:16;;;;;;;2.78;1.02;;;;;;;;;;5035982;28;20040;-63
2022/11/21 04:45:43;;;;;;;4.93;1.17;;;;;;;;;;5045188;28;20037;-62
2022/11/21 04:48:09;;;;;;;8.70;1.17;;;;;;;;;;5046504;28;20024;-63
2022/11/21 04:50:34;;;;;;;8.85;1.50;;;;;;;;;;5046331;28;20044;-62
2022/11/21 04:53:00;;;;;;;4.28;1.13;;;;;;;;;;5040396;28;20405;-63
2022/11/21 04:55:29;;;;;;;2.17;1.17;;;;;;;;;;5042798;28;20526;-63
2022/11/21 04:57:54;;;;;;;6.88;1.67;;;;;;;;;;5046254;28;20033;-63
2022/11/21 05:00:20;;;;;;;8.32;1.38;;;;;;;;;;5046641;28;20033;-62
2022/11/21 05:02:46;;;;;;;4.35;1.60;;;;;;;;;;5066392;28;20044;-63
2022/11/21 05:05:11;;;;;;;5.50;1.52;;;;;;;;;;5066111;28;20041;-63
2022/11/21 05:07:37;;;;;;;5.22;1.80;;;;;;;;;;5061779;28;20090;-62
2022/11/21 05:10:04;;;;;;;7.88;1.77;;;;;;;;;;5025635;28;20045;-63
2022/11/21 05:15:14;;;;;;;5.97;2.10;;;;;;;;;;5044260;28;20027;-63
2022/11/21 05:17:39;;;;;;;9.15;2.00;;;;;;;;;;5045071;28;20029;-63
2022/11/21 05:20:05;;;;;;;5.45;1.75;;;;;;;;;;5045626;28;20048;-62
2022/11/21 05:22:30;;;;;;;6.20;2.15;;;;;;;;;;5045573;28;20026;-63
2022/11/21 05:24:56;;;;;;;4.03;1.75;;;;;;;;;;5045360;28;20506;-62
2022/11/21 05:27:21;;;;;;;3.72;1.40;;;;;;;;;;5045893;28;20490;-63
2022/11/21 05:29:47;;;;;;;5.03;1.38;;;;;;;;;;5044269;28;20179;-62
2022/11/21 05:32:12;;;;;;;6.93;1.63;;;;;;;;;;5035949;28;20037;-63
2022/11/21 05:34:37;;;;;;;2.83;1.23;;;;;;;;;;5042962;28;20033;-63
2022/11/21 05:37:03;;;;;;;2.38;1.00;;;;;;;;;;5044489;28;20044;-63
2022/11/21 05:39:28;;;;;;;4.10;1.30;;;;;;;;;;5037338;28;20036;-62
2022/11/21 05:41:54;;;;;;;1.42;0.80;;;;;;;;;;5023976;28;20627;-63
2022/11/21 05:44:19;;;;;;;4.03;1.30;;;;;;;;;;5024835;28;20485;-63
2022/11/21 05:46:45;;;;;;;5.90;1.30;;;;;;;;;;5025570;28;20125;-63
2022/11/21 05:49:10;;;;;;;1.48;0.88;;;;;;;;;;5025381;28;20576;-63
2022/11/21 05:51:36;;;;;;;1.98;0.90;;;;;;;;;;5024660;28;20039;-63
2022/11/21 05:54:02;;;;;;;14.60;1.50;;;;;;;;;;5023962;28;20049;-63
2022/11/21 05:56:27;;;;;;;3.35;1.50;;;;;;;;;;5034957;28;20112;-62
2022/11/21 05:58:57;;;;;;;2.03;0.90;;;;;;;;;;5046000;28;20059;-62
2022/11/21 06:04:07;;;;;;;9.05;1.20;;;;;;;;;;5063047;28;20421;-62
2022/11/21 06:06:33;;;;;;;1.60;0.90;;;;;;;;;;5053255;28;20508;-62
2022/11/21 06:08:59;;;;;;;4.22;1.15;;;;;;;;;;5069017;28;20024;-63
2022/11/21 06:11:24;;;;;;;5.50;1.55;;;;;;;;;;5069120;28;20032;-62
2022/11/21 06:13:51;;;;;;;3.58;1.30;;;;;;;;;;5062437;28;20036;-63
2022/11/21 06:16:18;;;;;;;3.47;1.00;;;;;;;;;;5048598;28;20085;-62
2022/11/21 06:18:46;;;;;;;4.25;1.40;;;;;;;;;;5045376;28;20052;-62
2022/11/21 06:21:16;;;;;;;6.68;1.40;;;;;;;;;;5049147;28;20029;-63
2022/11/21 06:23:42;;;;;;;0.80;0.73;;;;;;;;;;5048080;28;20190;-62
2022/11/21 06:26:11;;;;;;;2.38;1.20;;;;;;;;;;5048701;28;20136;-62
2022/11/21 06:28:39;;;;;;;5.82;2.13;;;;;;;;;;5048749;28;20060;-63
2022/11/21 06:31:10;;;;;;;6.35;1.85;;;;;;;;;;5048190;28;20033;-63
2022/11/21 06:33:36;;;;;;;2.90;1.70;;;;;;;;;;5048596;28;20029;-62
2022/11/21 06:36:07;;;;;;;2.03;1.25;;;;;;;;;;5048742;28;20064;-62
2022/11/21 06:38:33;;;;;;;8.13;1.80;;;;;;;;;;5046287;28;20017;-62
2022/11/21 06:41:06;;;;;;;1.15;0.88;;;;;;;;;;5033638;28;20573;-62
2022/11/21 06:43:32;;;;;;;1.65;0.75;;;;;;;;;;5028398;28;20034;-63
2022/11/21 06:45:57;;;;;;;3.97;1.75;;;;;;;;;;5028374;28;20029;-62
2022/11/21 06:48:23;;;;;;;5.00;1.65;;;;;;;;;;5028079;28;20052;-63
2022/11/21 06:50:48;;;;;;;2.40;1.30;;;;;;;;;;5028365;28;20116;-63
2022/11/21 06:53:14;;;;;;;2.08;1.40;;;;;;;;;;5027725;28;20426;-63
2022/11/21 06:55:39;;;;;;;5.95;2.03;;;;;;;;;;5028129;28;20124;-63
2022/11/21 06:58:04;;;;;;;3.30;1.25;;;;;;;;;;5027787;28;20044;-62
2022/11/21 07:00:30;;;;;;;7.35;2.03;;;;;;;;;;5027856;28;20120;-63
2022/11/21 07:03:02;;;;;;;4.35;1.70;;;;;;;;;;5028310;28;20022;-62
2022/11/21 07:05:28;;;;;;;5.95;1.50;;;;;;;;;;5027041;28;20021;-62
2022/11/21 07:08:01;;;;;;;2.75;1.35;;;;;;;;;;5027770;28;20041;-62
2022/11/21 07:10:27;;;;;;;3.27;1.40;;;;;;;;;;5042016;28;20067;-62
2022/11/21 07:15:41;;;;;;;2.20;1.35;;;;;;;;;;5047992;28;20083;-62
2022/11/21 07:18:06;;;;;;;3.35;1.98;;;;;;;;;;5047631;28;20029;-62
2022/11/21 07:20:32;;;;;;;3.85;1.55;;;;;;;;;;5027154;28;20075;-63
2022/11/21 07:22:57;;;;;;;6.10;1.70;;;;;;;;;;5027249;28;20033;-62
2022/11/21 07:25:22;;;;;;;3.58;2.13;;;;;;;;;;5027779;28;20124;-62
2022/11/21 07:27:48;;;;;;;4.72;1.40;;;;;;;;;;5027728;28;20117;-63
2022/11/21 07:30:13;;;;;;;6.53;1.90;;;;;;;;;;5027904;28;20033;-62
2022/11/21 07:32:40;;;;;;;5.40;1.50;;;;;;;;;;5028807;28;20613;-62
2022/11/21 07:35:06;;;;;;;5.68;1.45;;;;;;;;;;5044078;28;20041;-61
2022/11/21 07:37:31;;;;;;;4.18;1.95;;;;;;;;;;5045253;28;20025;-64
2022/11/21 07:39:56;;;;;;;1.45;0.95;;;;;;;;;;5048493;28;20060;-62
2022/11/21 07:42:22;;;;;;;3.80;1.70;;;;;;;;;;5048092;28;20630;-63
2022/11/21 07:44:47;;;;;;;12.43;2.03;;;;;;;;;;5047391;28;20108;-63
2022/11/21 07:47:13;;;;;;;3.83;1.65;;;;;;;;;;5044847;28;20040;-63
2022/11/21 07:49:38;;;;;;;5.57;2.28;;;;;;;;;;5045950;28;20037;-62
2022/11/21 07:52:03;;;;;;;6.85;2.50;;;;;;;;;;5041118;28;20046;-62
2022/11/21 07:54:29;;;;;;;6.50;2.55;;;;;;;;;;5036149;28;20413;-62
2022/11/21 07:56:54;;;;;;;2.63;1.27;;;;;;;;;;5024773;28;20147;-62
2022/11/21 07:59:19;;;;;;;6.10;2.50;;;;;;;;;;5024550;28;20455;-63
2022/11/21 08:01:45;;;;;;;3.30;1.88;;;;;;;;;;5025895;28;20568;-62
2022/11/21 08:04:10;;;;;;;5.25;2.17;;;;;;;;;;5024975;28;20457;-63
2022/11/21 08:06:35;;;;;;;7.50;3.40;;;;;;;;;;5027126;28;20050;-62
2022/11/21 08:09:01;;;;;;;2.50;0.98;;;;;;;;;;5026507;28;20544;-62
2022/11/21 08:11:26;;;;;;;3.60;2.08;;;;;;;;;;5025046;28;20078;-62
2022/11/21 08:13:51;;;;;;;3.00;2.20;;;;;;;;;;5033573;28;20583;-62
2022/11/21 08:16:17;;;;;;;6.10;2.58;;;;;;;;;;5046353;28;20458;-62
2022/11/21 08:18:42;;;;;;;5.25;2.58;;;;;;;;;;5045735;28;20029;-63
2022/11/21 08:21:07;;;;;;;8.20;3.13;;;;;;;;;;5042377;28;20021;-62
2022/11/21 08:23:33;;;;;;;2.28;1.50;;;;;;;;;;5041726;28;20474;-63
2022/11/21 08:25:58;;;;;;;7.65;2.67;;;;;;;;;;5045722;28;20512;-63
2022/11/21 08:28:23;;;;;;;5.00;3.15;;;;;;;;;;5044417;28;20106;-63
2022/11/21 08:30:49;;;;;;;7.55;3.65;;;;;;;;;;5042823;28;20091;-63
2022/11/21 08:33:14;;;;;;;8.00;3.88;;;;;;;;;;5043529;28;20033;-63
2022/11/21 08:35:41;;;;;;;9.45;4.93;;;;;;;;;;5046359;28;20028;-63
2022/11/21 08:38:07;;;;;;;14.55;4.93;;;;;;;;;;5041577;28;20061;-63
2022/11/21 08:40:33;;;;;;;10.70;4.47;;;;;;;;;;5032537;28;20485;-66
2022/11/21 08:43:00;;;;;;;16.50;5.75;;;;;;;;;;5038693;28;20045;-63
2022/11/21 08:45:25;;;;;;;15.50;4.00;;;;;;;;;;5044453;28;20395;-63
2022/11/21 08:47:51;;;;;;;15.30;5.95;;;;;;;;;;5044946;28;20070;-63
2022/11/21 08:50:17;;;;;;;15.98;5.55;;;;;;;;;;5058048;28;20021;-63
2022/11/21 08:52:42;;;;;;;16.52;5.97;;;;;;;;;;5048201;28;20112;-63
2022/11/21 08:55:08;;;;;;;20.10;6.93;;;;;;;;;;5045241;28;20923;-63
2022/11/21 08:57:39;;;;;;;17.58;7.57;;;;;;;;;;5018309;28;20028;-62
2022/11/21 09:00:05;;;;;;;19.27;6.88;;;;;;;;;;5029024;28;20124;-63
2022/11/21 09:02:30;;;;;;;12.25;4.25;;;;;;;;;;5038951;28;20108;-63
2022/11/21 09:04:56;;;;;;;13.52;5.40;;;;;;;;;;5025815;28;20055;-63
2022/11/21 09:07:21;;;;;;;9.02;4.68;;;;;;;;;;4829107;28;20502;-63
2022/11/21 09:09:47;;;;;;;6.53;3.45;;;;;;;;;;4946347;28;20071;-63
2022/11/21 09:12:12;;;;;;;8.55;4.03;;;;;;;;;;5042678;28;20110;-63
2022/11/21 09:20:05;;;;;;;4.68;3.55;;;;;;;;;;5046298;28;20048;-63
2022/11/21 09:22:31;;;;;;;11.85;3.63;;;;;;;;;;5045281;28;20033;-64
2022/11/21 09:24:56;;;;;;;12.73;4.65;;;;;;;;;;5045912;28;20069;-63
2022/11/21 09:27:21;;;;;;;11.77;5.18;;;;;;;;;;5046212;28;20049;-63
2022/11/21 09:29:47;;;;;;;12.55;4.38;;;;;;;;;;5046962;28;20382;-63
2022/11/21 09:32:12;;;;;;;12.25;5.20;;;;;;;;;;5045093;28;20037;-63
2022/11/21 09:34:37;;;;;;;18.77;6.70;;;;;;;;;;5044286;28;20793;-63
2022/11/21 09:37:03;;;;;;;24.88;8.98;;;;;;;;;;5045621;28;20025;-63
2022/11/21 09:39:28;;;;;;;21.90;8.68;;;;;;;;;;5038459;28;20029;-63
2022/11/21 09:42:23;;;;;;;18.17;6.05;;;;;;;;;;5013005;28;20399;-62
2022/11/21 09:44:51;;;;;;;19.95;6.50;;;;;;;;;;5028545;28;20100;-63
2022/11/21 09:47:28;;;;;;;18.17;7.40;;;;;;;;;;5031196;28;20049;-63
2022/11/21 09:50:12;;;;;;;9.27;4.28;;;;;;;;;;5028405;28;20120;-63
2022/11/21 09:52:44;;;;;;;10.10;4.57;;;;;;;;;;5040724;28;20057;-63
2022/11/21 09:55:17;;;;;;;5.07;1.92;;;;;;;;;;5068138;28;20044;-63
2022/11/21 09:57:46;;;;;;;8.48;3.85;;;;;;;;;;5045032;28;20099;-63
2022/11/21 10:00:19;;;;;;;10.50;4.03;;;;;;;;;;5054730;28;20039;-63
2022/11/21 10:02:45;;;;;;;9.93;3.33;;;;;;;;;;5070891;28;20520;-63
2022/11/21 10:05:14;;;;;;;6.60;2.88;;;;;;;;;;5059988;28;20032;-63
2022/11/21 10:07:41;;;;;;;7.22;2.00;;;;;;;;;;5038962;28;20106;-62
2022/11/21 10:10:28;;;;;;;6.70;2.65;;;;;;;;;;5043058;28;20041;-63
2022/11/21 10:12:56;;;;;;;9.77;2.35;;;;;;;;;;5034294;28;20037;-63
2022/11/21 10:15:31;;;;;;;6.80;2.83;;;;;;;;;;5048712;28;20045;-63
2022/11/21 10:18:33;;;;;;;7.53;3.20;;;;;;;;;;5044549;28;20035;-62
2022/11/21 10:21:38;;;;;;;7.18;2.47;;;;;;;;;;5037367;28;20030;-63
2022/11/21 10:24:25;;;;;;;8.07;3.20;;;;;;;;;;5022577;28;20025;-63
2022/11/21 10:26:55;;;;;;;5.07;3.13;;;;;;;;;;5045016;28;20025;-63
2022/11/21 10:29:22;;;;;;;4.68;2.63;;;;;;;;;;5047838;28;20030;-63
2022/11/21 10:31:48;;;;;;;9.77;3.35;;;;;;;;;;5047962;28;20083;-63
2022/11/21 10:34:21;;;;;;;6.53;3.67;;;;;;;;;;5047410;28;20033;-63
2022/11/21 10:37:03;;;;;;;8.32;3.53;;;;;;;;;;5046739;28;20037;-63
2022/11/21 10:39:36;;;;;;;7.20;3.38;;;;;;;;;;5047791;28;20048;-62
2022/11/21 10:42:28;;;;;;;4.80;2.80;;;;;;;;;;5049918;28;20449;-62
2022/11/21 10:47:39;;;;;;;6.78;3.45;;;;;;;;;;5014392;28;20051;-63
2022/11/21 10:50:07;;;;;;;8.30;3.83;;;;;;;;;;5042058;28;20096;-63
2022/11/21 10:52:48;;;;;;;7.05;3.70;;;;;;;;;;5047535;28;20050;-63
2022/11/21 10:55:14;;;;;;;14.07;4.40;;;;;;;;;;5046969;28;20116;-63
2022/11/21 10:57:50;;;;;;;14.30;5.97;;;;;;;;;;5049273;28;20498;-63
2022/11/21 11:00:19;;;;;;;18.05;5.65;;;;;;;;;;5061845;28;20036;-63
2022/11/21 11:02:54;;;;;;;17.08;6.55;;;;;;;;;;5034699;28;20268;-63
2022/11/21 11:05:24;;;;;;;30.38;9.60;;;;;;;;;;5038020;28;20033;-62
2022/11/21 11:08:09;;;;;;;15.98;6.25;;;;;;;;;;5042555;28;20131;-63
2022/11/21 11:10:43;;;;;;;11.52;5.55;;;;;;;;;;5040711;28;20041;-62
2022/11/21 11:13:32;;;;;;;12.75;4.47;;;;;;;;;;5048823;28;20033;-62
2022/11/21 11:16:09;;;;;;;17.42;4.68;;;;;;;;;;5047274;28;20013;-62
2022/11/21 11:18:44;;;;;;;23.63;7.05;;;;;;;;;;5043257;28;20681;-62
2022/11/21 11:21:25;;;;;;;26.17;7.82;;;;;;;;;;5011838;28;20037;-66
2022/11/21 11:23:52;;;;;;;17.13;6.70;;;;;;;;;;5027970;28;20051;-66
2022/11/21 11:26:24;;;;;;;18.70;6.07;;;;;;;;;;5028602;28;20037;-66
2022/11/21 11:28:50;;;;;;;13.95;6.18;;;;;;;;;;5036904;28;20048;-64
2022/11/21 11:31:16;;;;;;;14.93;6.70;;;;;;;;;;5032846;28;20025;-72
2022/11/21 11:33:47;;;;;;;15.18;5.25;;;;;;;;;;5037916;28;20032;-66
2022/11/21 11:36:34;;;;;;;24.55;5.80;;;;;;;;;;5041032;28;20569;-66
2022/11/21 11:39:01;;;;;;;17.80;6.68;;;;;;;;;;5041599;28;20695;-66
2022/11/21 11:41:26;;;;;;;16.23;5.22;;;;;;;;;;5041856;28;20140;-65
2022/11/21 11:47:30;;;;;;;13.85;4.40;;;;;;;;;;5041105;28;20048;-65
2022/11/21 11:50:11;;;;;;;5.93;2.63;;;;;;;;;;5046355;28;20044;-65
2022/11/21 11:52:52;;;;;;;6.85;2.80;;;;;;;;;;5047037;28;20048;-65
2022/11/21 11:55:23;;;;;;;3.65;1.88;;;;;;;;;;5050402;28;20025;-65
2022/11/21 11:57:52;;;;;;;2.80;1.90;;;;;;;;;;5046486;28;20087;-65
2022/11/21 12:00:26;;;;;;;4.47;2.13;;;;;;;;;;5040624;28;20127;-65
2022/11/21 12:02:59;;;;;;;10.38;1.75;;;;;;;;;;5040744;28;20033;-65
2022/11/21 12:05:25;;;;;;;5.68;2.08;;;;;;;;;;5046153;28;20037;-65
2022/11/21 12:08:08;;;;;;;2.30;1.67;;;;;;;;;;5029458;28;20032;-65
2022/11/21 12:12:05;;;;;;;4.80;1.85;;;;;;;;;;5047832;28;20037;-65
2022/11/21 12:13:27;;;;;;;7.78;2.35;;;;;;;;;;5046844;28;20505;-65
2022/11/21 12:15:56;;;;;;;5.65;1.60;;;;;;;;;;5041887;28;20055;-65
2022/11/21 12:18:33;;;;;;;7.70;1.67;;;;;;;;;;5050002;28;20628;-65
2022/11/21 12:21:01;;;;;;;4.55;1.52;;;;;;;;;;5047081;28;20094;-66
2022/11/21 12:23:30;;;;;;;2.88;1.33;;;;;;;;;;5046586;28;20029;-66
2022/11/21 12:26:23;;;;;;;3.25;2.13;;;;;;;;;;5046755;28;20045;-65
2022/11/21 12:29:11;;;;;;;2.75;1.40;;;;;;;;;;5048166;28;20043;-65
2022/11/21 12:32:18;;;;;;;5.63;1.90;;;;;;;;;;5011034;28;20064;-65
2022/11/21 12:35:10;;;;;;;2.33;1.25;;;;;;;;;;4991858;28;20189;-65
2022/11/21 12:37:58;;;;;;;5.72;1.80;;;;;;;;;;5045381;28;20219;-65
2022/11/21 12:40:42;;;;;;;2.03;1.10;;;;;;;;;;5032903;28;20060;-65
2022/11/21 12:43:45;;;;;;;5.72;1.80;;;;;;;;;;5067983;28;20020;-65
2022/11/21 12:46:27;;;;;;;2.92;1.83;;;;;;;;;;5067651;28;20045;-65
2022/11/21 12:55:23;;;;;;;7.32;1.27;;;;;;;;;;5051731;28;20051;-64
2022/11/21 12:57:54;;;;;;;4.55;1.45;;;;;;;;;;5044446;28;20025;-65
2022/11/21 13:00:27;;;;;;;11.73;3.67;;;;;;;;;;5046158;28;20041;-65
2022/11/21 13:02:59;;;;;;;3.65;1.75;;;;;;;;;;5037221;28;20621;-65
2022/11/21 13:05:35;;;;;;;6.57;1.80;;;;;;;;;;5032436;28;20041;-65
2022/11/21 13:08:15;;;;;;;4.70;2.10;;;;;;;;;;5034442;28;20033;-65
2022/11/21 13:10:49;;;;;;;3.38;2.13;;;;;;;;;;5039264;28;20033;-65
2022/11/21 13:13:29;;;;;;;;;;;;;;;;;;5046906;28;20048;-65
2022/11/21 13:16:07;;;;;;;3.83;2.30;;;;;;;;;;5045889;28;19912;-64
2022/11/21 13:18:39;;;;;;;4.97;2.38;;;;;;;;;;5045108;28;20043;-65
2022/11/21 13:21:04;;;;;;;6.32;2.15;;;;;;;;;;5031414;28;20460;-63
2022/11/21 13:23:37;;;;;;;4.57;2.25;;;;;;;;;;5050296;28;20550;-63
2022/11/21 13:26:41;;;;;;;3.85;2.33;;;;;;;;;;5048003;28;20561;-62
2022/11/21 13:29:10;;;;;;;;;;;;;;;;;;4964316;28;20736;-63
2022/11/21 13:31:36;;;;;;;5.43;2.47;;;;;;;;;;4958233;28;20410;-63
2022/11/21 13:34:03;;;;;;;2.00;1.55;;;;;;;;;;4991091;28;20026;-63
2022/11/21 13:36:29;;;;;;;4.82;2.13;;;;;;;;;;5057115;28;20048;-63
2022/11/21 13:38:54;;;;;;;9.63;3.28;;;;;;;;;;5049699;28;20035;-63
2022/11/21 13:44:30;;;;;;;7.85;2.42;;;;;;;;;;5044730;28;20106;-63
2022/11/21 13:47:24;;;;;;;4.82;2.75;;;;;;;;;;5044463;28;20041;-64
2022/11/21 13:50:12;;;;;;;6.03;2.20;;;;;;;;;;5019748;28;20033;-63
2022/11/21 13:52:48;;;;;;;8.98;2.25;;;;;;;;;;5037921;28;20057;-63
2022/11/21 13:55:35;;;;;;;4.60;1.83;;;;;;;;;;5040355;28;20422;-63
2022/11/21 13:58:24;;;;;;;1.80;1.02;;;;;;;;;;5041302;28;20029;-64
2022/11/21 14:01:11;;;;;;;1.00;0.95;;;;;;;;;;5046733;28;20059;-63
2022/11/21 14:04:00;;;;;;;2.38;1.48;;;;;;;;;;5043281;28;20041;-63
2022/11/21 14:06:37;;;;;;;3.75;1.50;;;;;;;;;;5027054;28;20034;-64
2022/11/21 14:09:13;;;;;;;2.28;1.40;;;;;;;;;;5025738;28;20163;-64
2022/11/21 14:11:48;;;;;;;8.18;1.75;;;;;;;;;;5026212;28;20132;-64
2022/11/21 14:14:39;;;;;;;2.50;1.63;;;;;;;;;;5034361;28;20037;-64
2022/11/21 14:17:43;;;;;;;3.83;1.83;;;;;;;;;;5033131;28;20044;-63
2022/11/21 14:20:22;;;;;;;4.65;2.40;;;;;;;;;;4999247;28;20115;-64
2022/11/21 14:22:57;;;;;;;3.33;1.77;;;;;;;;;;5025892;28;20041;-63
2022/11/21 14:25:33;;;;;;;3.20;1.30;;;;;;;;;;5046696;28;20045;-63
2022/11/21 14:28:00;;;;;;;4.72;1.75;;;;;;;;;;5035156;28;20671;-63
2022/11/21 14:30:28;;;;;;;7.10;2.88;;;;;;;;;;5047399;28;20045;-64
2022/11/21 14:32:53;;;;;;;6.68;2.00;;;;;;;;;;5050489;28;20041;-64
2022/11/21 14:35:21;;;;;;;6.32;1.50;;;;;;;;;;5049618;28;20090;-64
2022/11/21 14:37:47;;;;;;;5.00;1.35;;;;;;;;;;5038330;28;20047;-64
2022/11/21 14:40:20;;;;;;;3.13;1.40;;;;;;;;;;5040174;28;20041;-65
2022/11/21 14:42:45;;;;;;;2.75;1.48;;;;;;;;;;5049248;28;20070;-64
2022/11/21 14:45:22;;;;;;;3.17;1.85;;;;;;;;;;5046674;28;20072;-63
2022/11/21 14:47:49;;;;;;;4.07;1.52;;;;;;;;;;5041445;28;20044;-63
2022/11/21 14:50:41;;;;;;;2.55;1.30;;;;;;;;;;5059067;28;20045;-63
2022/11/21 14:53:10;;;;;;;6.22;1.98;;;;;;;;;;5065202;28;20044;-63
2022/11/21 14:55:36;;;;;;;3.92;1.83;;;;;;;;;;5047946;28;20065;-64
2022/11/21 14:58:04;;;;;;;6.10;1.10;;;;;;;;;;5049067;28;20068;-64
2022/11/21 15:00:30;;;;;;;4.18;1.50;;;;;;;;;;5048494;28;20275;-64
2022/11/21 15:02:57;;;;;;;4.00;1.13;;;;;;;;;;5048197;28;20525;-64
2022/11/21 15:05:41;;;;;;;9.85;1.75;;;;;;;;;;5048368;28;20580;-64
2022/11/21 15:08:08;;;;;;;3.50;1.40;;;;;;;;;;5048117;28;20040;-64
2022/11/21 15:10:34;;;;;;;3.55;1.15;;;;;;;;;;5051993;28;20021;-64
2022/11/21 15:13:03;;;;;;;4.35;1.70;;;;;;;;;;5068519;28;20025;-64
2022/11/21 15:15:36;;;;;;;4.03;1.00;;;;;;;;;;5046934;28;20611;-64
2022/11/21 15:18:04;;;;;;;7.85;2.38;;;;;;;;;;5032159;28;20104;-64
2022/11/21 15:20:30;;;;;;;9.75;2.40;;;;;;;;;;5028002;28;20048;-64
2022/11/21 15:22:58;;;;;;;3.97;1.38;;;;;;;;;;5027962;28;20029;-63
2022/11/21 15:25:45;;;;;;;8.52;2.38;;;;;;;;;;5027747;28;20022;-64